Time;durP1;ratioP1;P1;durP2;ratioP2;P2;SDS_P1;SDS_P2;PMS_P1;PMS_P2;Temp;Humidity;BMP_temperature;BMP_pressure;BME280_temperature;BME280_humidity;BME280_pressure;Samples;Min_cycle;Max_cycle;Signal;HPM_P1;HPM_P2
2022/07/13 00:00:36;;;;;;;2.7;2.25;;;;;;;14.38;61.91504;96083.72;;;;
2022/07/13 00:01:37;;;;;;;2.7;2.25;;;;;;;14.38;61.91504;96083.72;;;;
2022/07/13 00:02:37;;;;;;;2.7;2.25;;;;;;;14.38;61.91504;96083.72;;;;
2022/07/13 00:03:38;;;;;;;2.7;2.25;;;;;;;14.38;61.91504;96083.72;;;;
2022/07/13 00:04:38;;;;;;;2.7;2.25;;;;;;;14.38;61.91504;96083.72;;;;
2022/07/13 00:05:39;;;;;;;2.7;2.25;;;;;;;14.38;61.91504;96083.72;;;;
2022/07/13 00:06:39;;;;;;;2.7;2.25;;;;;;;14.38;61.91504;96083.72;;;;
2022/07/13 00:07:40;;;;;;;2.7;2.25;;;;;;;14.38;61.91504;96083.72;;;;
2022/07/13 00:08:40;;;;;;;2.9;2.2;;;;;;;14.32;62.23242;96088.98;;;;
2022/07/13 00:09:41;;;;;;;2.9;2.2;;;;;;;14.32;62.23242;96088.98;;;;
2022/07/13 00:10:42;;;;;;;2.9;2.2;;;;;;;14.32;62.23242;96088.98;;;;
2022/07/13 00:11:42;;;;;;;2.9;2.2;;;;;;;14.32;62.23242;96088.98;;;;
2022/07/13 00:12:43;;;;;;;2.9;2.2;;;;;;;14.32;62.23242;96088.98;;;;
2022/07/13 00:13:43;;;;;;;2.9;2.2;;;;;;;14.32;62.23242;96088.98;;;;
2022/07/13 00:14:44;;;;;;;2.9;2.2;;;;;;;14.32;62.23242;96088.98;;;;
2022/07/13 00:15:44;;;;;;;2.9;2.2;;;;;;;14.32;62.23242;96088.98;;;;
2022/07/13 00:16:45;;;;;;;2.9;2.2;;;;;;;14.32;62.23242;96088.98;;;;
2022/07/13 00:17:46;;;;;;;2.9;2.2;;;;;;;14.32;62.23242;96088.98;;;;
2022/07/13 00:18:46;;;;;;;2.45;2.15;;;;;;;14.23;62.51465;96083.2;;;;
2022/07/13 00:19:47;;;;;;;2.45;2.15;;;;;;;14.23;62.51465;96083.2;;;;
2022/07/13 00:20:47;;;;;;;2.45;2.15;;;;;;;14.23;62.51465;96083.2;;;;
2022/07/13 00:21:48;;;;;;;2.45;2.15;;;;;;;14.23;62.51465;96083.2;;;;
2022/07/13 00:22:48;;;;;;;2.45;2.15;;;;;;;14.23;62.51465;96083.2;;;;
2022/07/13 00:23:49;;;;;;;2.45;2.15;;;;;;;14.23;62.51465;96083.2;;;;
2022/07/13 00:24:49;;;;;;;2.45;2.15;;;;;;;14.23;62.51465;96083.2;;;;
2022/07/13 00:25:50;;;;;;;2.45;2.15;;;;;;;14.23;62.51465;96083.2;;;;
2022/07/13 00:26:50;;;;;;;2.45;2.15;;;;;;;14.23;62.51465;96083.2;;;;
2022/07/13 00:27:51;;;;;;;2.45;2.15;;;;;;;14.23;62.51465;96083.2;;;;
2022/07/13 00:28:52;;;;;;;2.45;2.15;;;;;;;14.23;62.51465;96083.2;;;;
2022/07/13 00:29:52;;;;;;;3.1;2;;;;;;;14.18;62.82422;96072.77;;;;
2022/07/13 00:30:53;;;;;;;3.1;2;;;;;;;14.18;62.82422;96072.77;;;;
2022/07/13 00:31:53;;;;;;;3.1;2;;;;;;;14.18;62.82422;96072.77;;;;
2022/07/13 00:32:54;;;;;;;3.1;2;;;;;;;14.18;62.82422;96072.77;;;;
2022/07/13 00:33:54;;;;;;;3.1;2;;;;;;;14.18;62.82422;96072.77;;;;
2022/07/13 00:34:55;;;;;;;3.1;2;;;;;;;14.18;62.82422;96072.77;;;;
2022/07/13 00:35:55;;;;;;;3.1;2;;;;;;;14.18;62.82422;96072.77;;;;
2022/07/13 00:36:56;;;;;;;3.1;2;;;;;;;14.18;62.82422;96072.77;;;;
2022/07/13 00:37:57;;;;;;;3.1;2;;;;;;;14.18;62.82422;96072.77;;;;
2022/07/13 00:38:57;;;;;;;3.1;2;;;;;;;14.18;62.82422;96072.77;;;;
2022/07/13 00:39:58;;;;;;;3.1;2;;;;;;;14.18;62.82422;96072.77;;;;
2022/07/13 00:40:58;;;;;;;5.75;2.2;;;;;;;14.1;63.10449;96062.52;;;;
2022/07/13 00:41:59;;;;;;;5.75;2.2;;;;;;;14.1;63.10449;96062.52;;;;
2022/07/13 00:43:00;;;;;;;5.75;2.2;;;;;;;14.1;63.10449;96062.52;;;;
2022/07/13 00:44:00;;;;;;;5.75;2.2;;;;;;;14.1;63.10449;96062.52;;;;
2022/07/13 00:45:09;;;;;;;5.75;2.2;;;;;;;14.1;63.10449;96062.52;;;;
2022/07/13 00:46:10;;;;;;;5.75;2.2;;;;;;;14.1;63.10449;96062.52;;;;
2022/07/13 00:47:11;;;;;;;5.75;2.2;;;;;;;14.1;63.10449;96062.52;;;;
2022/07/13 00:48:12;;;;;;;5.75;2.2;;;;;;;14.1;63.10449;96062.52;;;;
2022/07/13 00:49:14;;;;;;;5.75;2.2;;;;;;;14.1;63.10449;96062.52;;;;
2022/07/13 00:50:14;;;;;;;5.75;2.2;;;;;;;14.1;63.10449;96062.52;;;;
2022/07/13 00:51:15;;;;;;;2.4;2.2;;;;;;;14.09;63.47266;96067.54;;;;
2022/07/13 00:52:15;;;;;;;2.4;2.2;;;;;;;14.09;63.47266;96067.54;;;;
2022/07/13 00:53:16;;;;;;;2.4;2.2;;;;;;;14.09;63.47266;96067.54;;;;
2022/07/13 00:54:18;;;;;;;2.4;2.2;;;;;;;14.09;63.47266;96067.54;;;;
2022/07/13 00:55:19;;;;;;;2.4;2.2;;;;;;;14.09;63.47266;96067.54;;;;
2022/07/13 00:56:20;;;;;;;2.4;2.2;;;;;;;14.09;63.47266;96067.54;;;;
2022/07/13 00:57:22;;;;;;;2.4;2.2;;;;;;;14.09;63.47266;96067.54;;;;
2022/07/13 00:58:23;;;;;;;2.4;2.2;;;;;;;14.09;63.47266;96067.54;;;;
2022/07/13 00:59:23;;;;;;;2.4;2.2;;;;;;;14.09;63.47266;96067.54;;;;
2022/07/13 01:00:25;;;;;;;2.4;2.2;;;;;;;14.09;63.47266;96067.54;;;;
2022/07/13 01:01:25;;;;;;;2.4;2.2;;;;;;;14.09;63.47266;96067.54;;;;
2022/07/13 01:02:27;;;;;;;2.15;1.95;;;;;;;14.04;63.84863;96062.84;;;;
2022/07/13 01:03:27;;;;;;;2.15;1.95;;;;;;;14.04;63.84863;96062.84;;;;
2022/07/13 01:04:28;;;;;;;2.15;1.95;;;;;;;14.04;63.84863;96062.84;;;;
2022/07/13 01:05:29;;;;;;;2.15;1.95;;;;;;;14.04;63.84863;96062.84;;;;
2022/07/13 01:06:30;;;;;;;2.15;1.95;;;;;;;14.04;63.84863;96062.84;;;;
2022/07/13 01:07:30;;;;;;;2.15;1.95;;;;;;;14.04;63.84863;96062.84;;;;
2022/07/13 01:08:32;;;;;;;2.15;1.95;;;;;;;14.04;63.84863;96062.84;;;;
2022/07/13 01:09:34;;;;;;;2.15;1.95;;;;;;;14.04;63.84863;96062.84;;;;
2022/07/13 01:10:35;;;;;;;2.15;1.95;;;;;;;14.04;63.84863;96062.84;;;;
2022/07/13 01:11:35;;;;;;;2.15;1.95;;;;;;;14.04;63.84863;96062.84;;;;
2022/07/13 01:12:36;;;;;;;2.5;2.3;;;;;;;14.01;64.15723;96054.47;;;;
2022/07/13 01:13:38;;;;;;;2.5;2.3;;;;;;;14.01;64.15723;96054.47;;;;
2022/07/13 01:14:39;;;;;;;2.5;2.3;;;;;;;14.01;64.15723;96054.47;;;;
2022/07/13 01:15:40;;;;;;;2.5;2.3;;;;;;;14.01;64.15723;96054.47;;;;
2022/07/13 01:16:41;;;;;;;2.5;2.3;;;;;;;14.01;64.15723;96054.47;;;;
2022/07/13 01:17:42;;;;;;;2.5;2.3;;;;;;;14.01;64.15723;96054.47;;;;
2022/07/13 01:18:42;;;;;;;2.5;2.3;;;;;;;14.01;64.15723;96054.47;;;;
2022/07/13 01:19:43;;;;;;;2.5;2.3;;;;;;;14.01;64.15723;96054.47;;;;
2022/07/13 01:20:45;;;;;;;2.5;2.3;;;;;;;14.01;64.15723;96054.47;;;;
2022/07/13 01:21:46;;;;;;;2.5;2.3;;;;;;;14.01;64.15723;96054.47;;;;
2022/07/13 01:22:49;;;;;;;2.5;2.3;;;;;;;13.86;64.51758;96061.41;;;;
2022/07/13 01:23:52;;;;;;;2.5;2.3;;;;;;;13.86;64.51758;96061.41;;;;
2022/07/13 01:24:53;;;;;;;2.5;2.3;;;;;;;13.86;64.51758;96061.41;;;;
2022/07/13 01:25:56;;;;;;;2.5;2.3;;;;;;;13.86;64.51758;96061.41;;;;
2022/07/13 01:26:56;;;;;;;2.5;2.3;;;;;;;13.86;64.51758;96061.41;;;;
2022/07/13 01:27:59;;;;;;;2.5;2.3;;;;;;;13.86;64.51758;96061.41;;;;
2022/07/13 01:29:00;;;;;;;2.5;2.3;;;;;;;13.86;64.51758;96061.41;;;;
2022/07/13 01:30:00;;;;;;;2.5;2.3;;;;;;;13.86;64.51758;96061.41;;;;
2022/07/13 01:31:01;;;;;;;2.5;2.3;;;;;;;13.86;64.51758;96061.41;;;;
2022/07/13 01:32:01;;;;;;;2.5;2.3;;;;;;;13.86;64.51758;96061.41;;;;
2022/07/13 01:33:02;;;;;;;2.5;2.3;;;;;;;13.86;64.51758;96061.41;;;;
2022/07/13 01:34:03;;;;;;;3.7;2.3;;;;;;;13.79;64.93164;96057.99;;;;
2022/07/13 01:35:05;;;;;;;3.7;2.3;;;;;;;13.79;64.93164;96057.99;;;;
2022/07/13 01:36:06;;;;;;;3.7;2.3;;;;;;;13.79;64.93164;96057.99;;;;
2022/07/13 01:37:07;;;;;;;3.7;2.3;;;;;;;13.79;64.93164;96057.99;;;;
2022/07/13 01:38:08;;;;;;;3.7;2.3;;;;;;;13.79;64.93164;96057.99;;;;
2022/07/13 01:39:09;;;;;;;3.7;2.3;;;;;;;13.79;64.93164;96057.99;;;;
2022/07/13 01:40:10;;;;;;;3.7;2.3;;;;;;;13.79;64.93164;96057.99;;;;
2022/07/13 01:41:11;;;;;;;3.7;2.3;;;;;;;13.79;64.93164;96057.99;;;;
2022/07/13 01:42:12;;;;;;;3.7;2.3;;;;;;;13.79;64.93164;96057.99;;;;
2022/07/13 01:43:12;;;;;;;3.7;2.3;;;;;;;13.79;64.93164;96057.99;;;;
2022/07/13 01:44:13;;;;;;;2.6;2.4;;;;;;;13.69;65.31641;96058.54;;;;
2022/07/13 01:45:14;;;;;;;2.6;2.4;;;;;;;13.69;65.31641;96058.54;;;;
2022/07/13 01:46:16;;;;;;;2.6;2.4;;;;;;;13.69;65.31641;96058.54;;;;
2022/07/13 01:47:17;;;;;;;2.6;2.4;;;;;;;13.69;65.31641;96058.54;;;;
2022/07/13 01:48:17;;;;;;;2.6;2.4;;;;;;;13.69;65.31641;96058.54;;;;
2022/07/13 01:49:18;;;;;;;2.6;2.4;;;;;;;13.69;65.31641;96058.54;;;;
2022/07/13 01:50:18;;;;;;;2.6;2.4;;;;;;;13.69;65.31641;96058.54;;;;
2022/07/13 01:51:21;;;;;;;2.6;2.4;;;;;;;13.69;65.31641;96058.54;;;;
2022/07/13 01:52:22;;;;;;;2.6;2.4;;;;;;;13.69;65.31641;96058.54;;;;
2022/07/13 01:53:22;;;;;;;2.6;2.4;;;;;;;13.69;65.31641;96058.54;;;;
2022/07/13 01:54:22;;;;;;;2.6;2.4;;;;;;;13.69;65.31641;96058.54;;;;
2022/07/13 01:55:23;;;;;;;2.35;2.2;;;;;;;13.65;65.66016;96052.42;;;;
2022/07/13 01:56:23;;;;;;;2.35;2.2;;;;;;;13.65;65.66016;96052.42;;;;
2022/07/13 01:57:24;;;;;;;2.35;2.2;;;;;;;13.65;65.66016;96052.42;;;;
2022/07/13 01:58:26;;;;;;;2.35;2.2;;;;;;;13.65;65.66016;96052.42;;;;
2022/07/13 01:59:26;;;;;;;2.35;2.2;;;;;;;13.65;65.66016;96052.42;;;;
2022/07/13 02:00:27;;;;;;;2.35;2.2;;;;;;;13.65;65.66016;96052.42;;;;
2022/07/13 02:01:27;;;;;;;2.35;2.2;;;;;;;13.65;65.66016;96052.42;;;;
2022/07/13 02:02:28;;;;;;;2.35;2.2;;;;;;;13.65;65.66016;96052.42;;;;
2022/07/13 02:03:29;;;;;;;2.35;2.2;;;;;;;13.65;65.66016;96052.42;;;;
2022/07/13 02:04:30;;;;;;;2.35;2.2;;;;;;;13.65;65.66016;96052.42;;;;
2022/07/13 02:05:31;;;;;;;2.85;2.25;;;;;;;13.59;66.05371;96054.1;;;;
2022/07/13 02:06:32;;;;;;;2.85;2.25;;;;;;;13.59;66.05371;96054.1;;;;
2022/07/13 02:07:32;;;;;;;2.85;2.25;;;;;;;13.59;66.05371;96054.1;;;;
2022/07/13 02:08:33;;;;;;;2.85;2.25;;;;;;;13.59;66.05371;96054.1;;;;
2022/07/13 02:09:33;;;;;;;2.85;2.25;;;;;;;13.59;66.05371;96054.1;;;;
2022/07/13 02:10:35;;;;;;;2.85;2.25;;;;;;;13.59;66.05371;96054.1;;;;
2022/07/13 02:11:35;;;;;;;2.85;2.25;;;;;;;13.59;66.05371;96054.1;;;;
2022/07/13 02:12:36;;;;;;;2.85;2.25;;;;;;;13.59;66.05371;96054.1;;;;
2022/07/13 02:13:37;;;;;;;2.85;2.25;;;;;;;13.59;66.05371;96054.1;;;;
2022/07/13 02:14:37;;;;;;;2.85;2.25;;;;;;;13.59;66.05371;96054.1;;;;
2022/07/13 02:15:38;;;;;;;2.85;2.25;;;;;;;13.59;66.05371;96054.1;;;;
2022/07/13 02:16:39;;;;;;;2.35;2.15;;;;;;;13.59;66.26953;96052.86;;;;
2022/07/13 02:17:40;;;;;;;2.35;2.15;;;;;;;13.59;66.26953;96052.86;;;;
2022/07/13 02:18:40;;;;;;;2.35;2.15;;;;;;;13.59;66.26953;96052.86;;;;
2022/07/13 02:19:41;;;;;;;2.35;2.15;;;;;;;13.59;66.26953;96052.86;;;;
2022/07/13 02:20:42;;;;;;;2.35;2.15;;;;;;;13.59;66.26953;96052.86;;;;
2022/07/13 02:21:42;;;;;;;2.35;2.15;;;;;;;13.59;66.26953;96052.86;;;;
2022/07/13 02:22:43;;;;;;;2.35;2.15;;;;;;;13.59;66.26953;96052.86;;;;
2022/07/13 02:23:44;;;;;;;2.35;2.15;;;;;;;13.59;66.26953;96052.86;;;;
2022/07/13 02:24:45;;;;;;;2.35;2.15;;;;;;;13.59;66.26953;96052.86;;;;
2022/07/13 02:25:45;;;;;;;2.35;2.15;;;;;;;13.59;66.26953;96052.86;;;;
2022/07/13 02:26:46;;;;;;;2.35;2.15;;;;;;;13.59;66.26953;96052.86;;;;
2022/07/13 02:27:46;;;;;;;2.5;2.3;;;;;;;13.5;66.63574;96052.81;;;;
2022/07/13 02:28:47;;;;;;;2.5;2.3;;;;;;;13.5;66.63574;96052.81;;;;
2022/07/13 02:29:47;;;;;;;2.5;2.3;;;;;;;13.5;66.63574;96052.81;;;;
2022/07/13 02:30:48;;;;;;;2.5;2.3;;;;;;;13.5;66.63574;96052.81;;;;
2022/07/13 02:31:48;;;;;;;2.5;2.3;;;;;;;13.5;66.63574;96052.81;;;;
2022/07/13 02:32:49;;;;;;;2.5;2.3;;;;;;;13.5;66.63574;96052.81;;;;
2022/07/13 02:33:49;;;;;;;2.5;2.3;;;;;;;13.5;66.63574;96052.81;;;;
2022/07/13 02:34:50;;;;;;;2.5;2.3;;;;;;;13.5;66.63574;96052.81;;;;
2022/07/13 02:35:50;;;;;;;2.5;2.3;;;;;;;13.5;66.63574;96052.81;;;;
2022/07/13 02:36:51;;;;;;;2.5;2.3;;;;;;;13.5;66.63574;96052.81;;;;
2022/07/13 02:37:51;;;;;;;2.45;2.25;;;;;;;13.53;67.01074;96061.19;;;;
2022/07/13 02:38:52;;;;;;;2.45;2.25;;;;;;;13.53;67.01074;96061.19;;;;
2022/07/13 02:39:55;;;;;;;2.45;2.25;;;;;;;13.53;67.01074;96061.19;;;;
2022/07/13 02:40:56;;;;;;;2.45;2.25;;;;;;;13.53;67.01074;96061.19;;;;
2022/07/13 02:41:56;;;;;;;2.45;2.25;;;;;;;13.53;67.01074;96061.19;;;;
2022/07/13 02:42:57;;;;;;;2.45;2.25;;;;;;;13.53;67.01074;96061.19;;;;
2022/07/13 02:43:58;;;;;;;2.45;2.25;;;;;;;13.53;67.01074;96061.19;;;;
2022/07/13 02:44:59;;;;;;;2.45;2.25;;;;;;;13.53;67.01074;96061.19;;;;
2022/07/13 02:46:00;;;;;;;2.45;2.25;;;;;;;13.53;67.01074;96061.19;;;;
2022/07/13 02:47:00;;;;;;;2.45;2.25;;;;;;;13.53;67.01074;96061.19;;;;
2022/07/13 02:48:00;;;;;;;2.45;2.25;;;;;;;13.53;67.01074;96061.19;;;;
2022/07/13 02:49:01;;;;;;;2.7;2.3;;;;;;;13.48;67.22949;96058.84;;;;
2022/07/13 02:50:02;;;;;;;2.7;2.3;;;;;;;13.48;67.22949;96058.84;;;;
2022/07/13 02:51:02;;;;;;;2.7;2.3;;;;;;;13.48;67.22949;96058.84;;;;
2022/07/13 02:52:03;;;;;;;2.7;2.3;;;;;;;13.48;67.22949;96058.84;;;;
2022/07/13 02:53:04;;;;;;;2.7;2.3;;;;;;;13.48;67.22949;96058.84;;;;
2022/07/13 02:54:05;;;;;;;2.7;2.3;;;;;;;13.48;67.22949;96058.84;;;;
2022/07/13 02:55:05;;;;;;;2.7;2.3;;;;;;;13.48;67.22949;96058.84;;;;
2022/07/13 02:56:06;;;;;;;2.7;2.3;;;;;;;13.48;67.22949;96058.84;;;;
2022/07/13 02:57:07;;;;;;;2.7;2.3;;;;;;;13.48;67.22949;96058.84;;;;
2022/07/13 02:58:08;;;;;;;2.7;2.3;;;;;;;13.48;67.22949;96058.84;;;;
2022/07/13 02:59:09;;;;;;;2.6;2.4;;;;;;;13.47;67.58691;96047.02;;;;
2022/07/13 03:00:10;;;;;;;2.6;2.4;;;;;;;13.47;67.58691;96047.02;;;;
2022/07/13 03:01:11;;;;;;;2.6;2.4;;;;;;;13.47;67.58691;96047.02;;;;
2022/07/13 03:02:12;;;;;;;2.6;2.4;;;;;;;13.47;67.58691;96047.02;;;;
2022/07/13 03:03:12;;;;;;;2.6;2.4;;;;;;;13.47;67.58691;96047.02;;;;
2022/07/13 03:04:13;;;;;;;2.6;2.4;;;;;;;13.47;67.58691;96047.02;;;;
2022/07/13 03:05:13;;;;;;;2.6;2.4;;;;;;;13.47;67.58691;96047.02;;;;
2022/07/13 03:06:14;;;;;;;2.6;2.4;;;;;;;13.47;67.58691;96047.02;;;;
2022/07/13 03:07:15;;;;;;;2.6;2.4;;;;;;;13.47;67.58691;96047.02;;;;
2022/07/13 03:08:15;;;;;;;2.6;2.4;;;;;;;13.47;67.58691;96047.02;;;;
2022/07/13 03:09:16;;;;;;;2.6;2.4;;;;;;;13.47;67.58691;96047.02;;;;
2022/07/13 03:10:16;;;;;;;2.5;2.3;;;;;;;13.38;67.88867;96037.63;;;;
2022/07/13 03:11:17;;;;;;;2.5;2.3;;;;;;;13.38;67.88867;96037.63;;;;
2022/07/13 03:12:18;;;;;;;2.5;2.3;;;;;;;13.38;67.88867;96037.63;;;;
2022/07/13 03:13:18;;;;;;;2.5;2.3;;;;;;;13.38;67.88867;96037.63;;;;
2022/07/13 03:14:19;;;;;;;2.5;2.3;;;;;;;13.38;67.88867;96037.63;;;;
2022/07/13 03:15:19;;;;;;;2.5;2.3;;;;;;;13.38;67.88867;96037.63;;;;
2022/07/13 03:16:20;;;;;;;2.5;2.3;;;;;;;13.38;67.88867;96037.63;;;;
2022/07/13 03:17:20;;;;;;;2.5;2.3;;;;;;;13.38;67.88867;96037.63;;;;
2022/07/13 03:18:21;;;;;;;2.5;2.3;;;;;;;13.38;67.88867;96037.63;;;;
2022/07/13 03:19:22;;;;;;;2.5;2.3;;;;;;;13.38;67.88867;96037.63;;;;
2022/07/13 03:20:22;;;;;;;2.55;2.35;;;;;;;13.48;68.18652;96041.49;;;;
2022/07/13 03:21:22;;;;;;;2.55;2.35;;;;;;;13.48;68.18652;96041.49;;;;
2022/07/13 03:22:23;;;;;;;2.55;2.35;;;;;;;13.48;68.18652;96041.49;;;;
2022/07/13 03:23:24;;;;;;;2.55;2.35;;;;;;;13.48;68.18652;96041.49;;;;
2022/07/13 03:24:25;;;;;;;2.55;2.35;;;;;;;13.48;68.18652;96041.49;;;;
2022/07/13 03:25:28;;;;;;;2.55;2.35;;;;;;;13.48;68.18652;96041.49;;;;
2022/07/13 03:26:28;;;;;;;2.55;2.35;;;;;;;13.48;68.18652;96041.49;;;;
2022/07/13 03:27:29;;;;;;;2.55;2.35;;;;;;;13.48;68.18652;96041.49;;;;
2022/07/13 03:28:30;;;;;;;2.55;2.35;;;;;;;13.48;68.18652;96041.49;;;;
2022/07/13 03:29:31;;;;;;;2.55;2.35;;;;;;;13.48;68.18652;96041.49;;;;
2022/07/13 03:30:31;;;;;;;2.55;2.35;;;;;;;13.48;68.18652;96041.49;;;;
2022/07/13 03:31:32;;;;;;;2.4;2.25;;;;;;;13.51;68.41797;96052.19;;;;
2022/07/13 03:32:32;;;;;;;2.4;2.25;;;;;;;13.51;68.41797;96052.19;;;;
2022/07/13 03:33:33;;;;;;;2.4;2.25;;;;;;;13.51;68.41797;96052.19;;;;
2022/07/13 03:34:33;;;;;;;2.4;2.25;;;;;;;13.51;68.41797;96052.19;;;;
2022/07/13 03:35:34;;;;;;;2.4;2.25;;;;;;;13.51;68.41797;96052.19;;;;
2022/07/13 03:36:34;;;;;;;2.4;2.25;;;;;;;13.51;68.41797;96052.19;;;;
2022/07/13 03:37:35;;;;;;;2.4;2.25;;;;;;;13.51;68.41797;96052.19;;;;
2022/07/13 03:38:35;;;;;;;2.4;2.25;;;;;;;13.51;68.41797;96052.19;;;;
2022/07/13 03:39:37;;;;;;;2.4;2.25;;;;;;;13.51;68.41797;96052.19;;;;
2022/07/13 03:40:37;;;;;;;2.4;2.25;;;;;;;13.51;68.41797;96052.19;;;;
2022/07/13 03:41:38;;;;;;;3.3;2.2;;;;;;;13.62;68.55371;96052.44;;;;
2022/07/13 03:42:38;;;;;;;3.3;2.2;;;;;;;13.62;68.55371;96052.44;;;;
2022/07/13 03:43:39;;;;;;;3.3;2.2;;;;;;;13.62;68.55371;96052.44;;;;
2022/07/13 03:44:39;;;;;;;3.3;2.2;;;;;;;13.62;68.55371;96052.44;;;;
2022/07/13 03:45:40;;;;;;;3.3;2.2;;;;;;;13.62;68.55371;96052.44;;;;
2022/07/13 03:46:41;;;;;;;3.3;2.2;;;;;;;13.62;68.55371;96052.44;;;;
2022/07/13 03:47:41;;;;;;;3.3;2.2;;;;;;;13.62;68.55371;96052.44;;;;
2022/07/13 03:48:42;;;;;;;3.3;2.2;;;;;;;13.62;68.55371;96052.44;;;;
2022/07/13 03:49:42;;;;;;;3.3;2.2;;;;;;;13.62;68.55371;96052.44;;;;
2022/07/13 03:50:42;;;;;;;3.3;2.2;;;;;;;13.62;68.55371;96052.44;;;;
2022/07/13 03:51:46;;;;;;;3.3;2.2;;;;;;;13.62;68.55371;96052.44;;;;
2022/07/13 03:52:46;;;;;;;2.4;2.2;;;;;;;13.65;68.66797;96052.42;;;;
2022/07/13 03:53:47;;;;;;;2.4;2.2;;;;;;;13.65;68.66797;96052.42;;;;
2022/07/13 03:54:47;;;;;;;2.4;2.2;;;;;;;13.65;68.66797;96052.42;;;;
2022/07/13 03:55:48;;;;;;;2.4;2.2;;;;;;;13.65;68.66797;96052.42;;;;
2022/07/13 03:56:48;;;;;;;2.4;2.2;;;;;;;13.65;68.66797;96052.42;;;;
2022/07/13 03:57:49;;;;;;;2.4;2.2;;;;;;;13.65;68.66797;96052.42;;;;
2022/07/13 03:58:49;;;;;;;2.4;2.2;;;;;;;13.65;68.66797;96052.42;;;;
2022/07/13 03:59:50;;;;;;;2.4;2.2;;;;;;;13.65;68.66797;96052.42;;;;
2022/07/13 04:00:51;;;;;;;2.4;2.2;;;;;;;13.65;68.66797;96052.42;;;;
2022/07/13 04:01:51;;;;;;;2.4;2.2;;;;;;;13.65;68.66797;96052.42;;;;
2022/07/13 04:02:52;;;;;;;2.5;2.25;;;;;;;13.8;68.7666;96055.21;;;;
2022/07/13 04:03:53;;;;;;;2.5;2.25;;;;;;;13.8;68.7666;96055.21;;;;
2022/07/13 04:04:53;;;;;;;2.5;2.25;;;;;;;13.8;68.7666;96055.21;;;;
2022/07/13 04:05:53;;;;;;;2.5;2.25;;;;;;;13.8;68.7666;96055.21;;;;
2022/07/13 04:06:54;;;;;;;2.5;2.25;;;;;;;13.8;68.7666;96055.21;;;;
2022/07/13 04:07:54;;;;;;;2.5;2.25;;;;;;;13.8;68.7666;96055.21;;;;
2022/07/13 04:08:56;;;;;;;2.5;2.25;;;;;;;13.8;68.7666;96055.21;;;;
2022/07/13 04:09:56;;;;;;;2.5;2.25;;;;;;;13.8;68.7666;96055.21;;;;
2022/07/13 04:10:57;;;;;;;2.5;2.25;;;;;;;13.8;68.7666;96055.21;;;;
2022/07/13 04:11:58;;;;;;;2.5;2.25;;;;;;;13.8;68.7666;96055.21;;;;
2022/07/13 04:12:58;;;;;;;2.5;2.25;;;;;;;13.8;68.7666;96055.21;;;;
2022/07/13 04:13:59;;;;;;;2.3;2.1;;;;;;;13.85;68.93848;96052.23;;;;
2022/07/13 04:14:59;;;;;;;2.3;2.1;;;;;;;13.85;68.93848;96052.23;;;;
2022/07/13 04:16:00;;;;;;;2.3;2.1;;;;;;;13.85;68.93848;96052.23;;;;
2022/07/13 04:17:00;;;;;;;2.3;2.1;;;;;;;13.85;68.93848;96052.23;;;;
2022/07/13 04:18:00;;;;;;;2.3;2.1;;;;;;;13.85;68.93848;96052.23;;;;
2022/07/13 04:19:01;;;;;;;2.3;2.1;;;;;;;13.85;68.93848;96052.23;;;;
2022/07/13 04:20:02;;;;;;;2.3;2.1;;;;;;;13.85;68.93848;96052.23;;;;
2022/07/13 04:21:03;;;;;;;2.3;2.1;;;;;;;13.85;68.93848;96052.23;;;;
2022/07/13 04:22:04;;;;;;;2.3;2.1;;;;;;;13.85;68.93848;96052.23;;;;
2022/07/13 04:23:04;;;;;;;2.3;2.1;;;;;;;13.85;68.93848;96052.23;;;;
2022/07/13 04:24:05;;;;;;;2.3;2.1;;;;;;;13.85;68.93848;96052.23;;;;
2022/07/13 04:25:06;;;;;;;2.85;2.1;;;;;;;13.99;69.02539;96040.48;;;;
2022/07/13 04:26:07;;;;;;;2.85;2.1;;;;;;;13.99;69.02539;96040.48;;;;
2022/07/13 04:27:08;;;;;;;2.85;2.1;;;;;;;13.99;69.02539;96040.48;;;;
2022/07/13 04:28:08;;;;;;;2.85;2.1;;;;;;;13.99;69.02539;96040.48;;;;
2022/07/13 04:29:08;;;;;;;2.85;2.1;;;;;;;13.99;69.02539;96040.48;;;;
2022/07/13 04:30:09;;;;;;;2.85;2.1;;;;;;;13.99;69.02539;96040.48;;;;
2022/07/13 04:31:10;;;;;;;2.85;2.1;;;;;;;13.99;69.02539;96040.48;;;;
2022/07/13 04:32:10;;;;;;;2.85;2.1;;;;;;;13.99;69.02539;96040.48;;;;
2022/07/13 04:33:11;;;;;;;2.85;2.1;;;;;;;13.99;69.02539;96040.48;;;;
2022/07/13 04:34:12;;;;;;;2.85;2.1;;;;;;;13.99;69.02539;96040.48;;;;
2022/07/13 04:35:12;;;;;;;4.2;2.35;;;;;;;14.13;69.20898;96028.85;;;;
2022/07/13 04:36:13;;;;;;;4.2;2.35;;;;;;;14.13;69.20898;96028.85;;;;
2022/07/13 04:37:13;;;;;;;4.2;2.35;;;;;;;14.13;69.20898;96028.85;;;;
2022/07/13 04:38:14;;;;;;;4.2;2.35;;;;;;;14.13;69.20898;96028.85;;;;
2022/07/13 04:39:14;;;;;;;4.2;2.35;;;;;;;14.13;69.20898;96028.85;;;;
2022/07/13 04:40:15;;;;;;;4.2;2.35;;;;;;;14.13;69.20898;96028.85;;;;
2022/07/13 04:41:15;;;;;;;4.2;2.35;;;;;;;14.13;69.20898;96028.85;;;;
2022/07/13 04:42:16;;;;;;;4.2;2.35;;;;;;;14.13;69.20898;96028.85;;;;
2022/07/13 04:43:16;;;;;;;4.2;2.35;;;;;;;14.13;69.20898;96028.85;;;;
2022/07/13 04:44:17;;;;;;;4.2;2.35;;;;;;;14.13;69.20898;96028.85;;;;
2022/07/13 04:45:18;;;;;;;4.2;2.35;;;;;;;14.13;69.20898;96028.85;;;;
2022/07/13 04:46:18;;;;;;;2.4;2.2;;;;;;;14.34;69.35156;96015.63;;;;
2022/07/13 04:47:19;;;;;;;2.4;2.2;;;;;;;14.34;69.35156;96015.63;;;;
2022/07/13 04:48:20;;;;;;;2.4;2.2;;;;;;;14.34;69.35156;96015.63;;;;
2022/07/13 04:49:20;;;;;;;2.4;2.2;;;;;;;14.34;69.35156;96015.63;;;;
2022/07/13 04:50:21;;;;;;;2.4;2.2;;;;;;;14.34;69.35156;96015.63;;;;
2022/07/13 04:51:21;;;;;;;2.4;2.2;;;;;;;14.34;69.35156;96015.63;;;;
2022/07/13 04:52:22;;;;;;;2.4;2.2;;;;;;;14.34;69.35156;96015.63;;;;
2022/07/13 04:53:22;;;;;;;2.4;2.2;;;;;;;14.34;69.35156;96015.63;;;;
2022/07/13 04:54:23;;;;;;;2.4;2.2;;;;;;;14.34;69.35156;96015.63;;;;
2022/07/13 04:55:23;;;;;;;2.4;2.2;;;;;;;14.34;69.35156;96015.63;;;;
2022/07/13 04:56:24;;;;;;;2.95;2.25;;;;;;;14.6;69.20801;96019.39;;;;
2022/07/13 04:57:25;;;;;;;2.95;2.25;;;;;;;14.6;69.20801;96019.39;;;;
2022/07/13 04:58:26;;;;;;;2.95;2.25;;;;;;;14.6;69.20801;96019.39;;;;
2022/07/13 04:59:26;;;;;;;2.95;2.25;;;;;;;14.6;69.20801;96019.39;;;;
2022/07/13 05:00:27;;;;;;;2.95;2.25;;;;;;;14.6;69.20801;96019.39;;;;
2022/07/13 05:01:28;;;;;;;2.95;2.25;;;;;;;14.6;69.20801;96019.39;;;;
2022/07/13 05:02:29;;;;;;;2.95;2.25;;;;;;;14.6;69.20801;96019.39;;;;
2022/07/13 05:03:29;;;;;;;2.95;2.25;;;;;;;14.6;69.20801;96019.39;;;;
2022/07/13 05:04:30;;;;;;;2.95;2.25;;;;;;;14.6;69.20801;96019.39;;;;
2022/07/13 05:05:32;;;;;;;2.95;2.25;;;;;;;14.6;69.20801;96019.39;;;;
2022/07/13 05:06:32;;;;;;;2.95;2.25;;;;;;;14.6;69.20801;96019.39;;;;
2022/07/13 05:07:33;;;;;;;4.35;2.299999;;;;;;;14.93;69.14063;96008.31;;;;
2022/07/13 05:08:33;;;;;;;4.35;2.299999;;;;;;;14.93;69.14063;96008.31;;;;
2022/07/13 05:09:34;;;;;;;4.35;2.299999;;;;;;;14.93;69.14063;96008.31;;;;
2022/07/13 05:10:34;;;;;;;4.35;2.299999;;;;;;;14.93;69.14063;96008.31;;;;
2022/07/13 05:11:35;;;;;;;4.35;2.299999;;;;;;;14.93;69.14063;96008.31;;;;
2022/07/13 05:12:35;;;;;;;4.35;2.299999;;;;;;;14.93;69.14063;96008.31;;;;
2022/07/13 05:13:38;;;;;;;4.35;2.299999;;;;;;;14.93;69.14063;96008.31;;;;
2022/07/13 05:14:38;;;;;;;4.35;2.299999;;;;;;;14.93;69.14063;96008.31;;;;
2022/07/13 05:15:39;;;;;;;4.35;2.299999;;;;;;;14.93;69.14063;96008.31;;;;
2022/07/13 05:16:39;;;;;;;4.35;2.299999;;;;;;;14.93;69.14063;96008.31;;;;
2022/07/13 05:17:40;;;;;;;2.5;2.3;;;;;;;15.32;68.92773;96001.34;;;;
2022/07/13 05:18:40;;;;;;;2.5;2.3;;;;;;;15.32;68.92773;96001.34;;;;
2022/07/13 05:19:41;;;;;;;2.5;2.3;;;;;;;15.32;68.92773;96001.34;;;;
2022/07/13 05:20:41;;;;;;;2.5;2.3;;;;;;;15.32;68.92773;96001.34;;;;
2022/07/13 05:21:42;;;;;;;2.5;2.3;;;;;;;15.32;68.92773;96001.34;;;;
2022/07/13 05:22:43;;;;;;;2.5;2.3;;;;;;;15.32;68.92773;96001.34;;;;
2022/07/13 05:23:43;;;;;;;2.5;2.3;;;;;;;15.32;68.92773;96001.34;;;;
2022/07/13 05:24:44;;;;;;;2.5;2.3;;;;;;;15.32;68.92773;96001.34;;;;
2022/07/13 05:25:44;;;;;;;2.5;2.3;;;;;;;15.32;68.92773;96001.34;;;;
2022/07/13 05:26:45;;;;;;;2.5;2.3;;;;;;;15.32;68.92773;96001.34;;;;
2022/07/13 05:27:45;;;;;;;2.5;2.3;;;;;;;15.32;68.92773;96001.34;;;;
2022/07/13 05:28:46;;;;;;;2.699999;2.2;;;;;;;15.83;68.5166;95992.78;;;;
2022/07/13 05:29:46;;;;;;;2.699999;2.2;;;;;;;15.83;68.5166;95992.78;;;;
2022/07/13 05:30:47;;;;;;;2.699999;2.2;;;;;;;15.83;68.5166;95992.78;;;;
2022/07/13 05:31:47;;;;;;;2.699999;2.2;;;;;;;15.83;68.5166;95992.78;;;;
2022/07/13 05:32:48;;;;;;;2.699999;2.2;;;;;;;15.83;68.5166;95992.78;;;;
2022/07/13 05:33:48;;;;;;;2.699999;2.2;;;;;;;15.83;68.5166;95992.78;;;;
2022/07/13 05:34:49;;;;;;;2.699999;2.2;;;;;;;15.83;68.5166;95992.78;;;;
2022/07/13 05:35:50;;;;;;;2.699999;2.2;;;;;;;15.83;68.5166;95992.78;;;;
2022/07/13 05:36:50;;;;;;;2.699999;2.2;;;;;;;15.83;68.5166;95992.78;;;;
2022/07/13 05:37:53;;;;;;;2.699999;2.2;;;;;;;15.83;68.5166;95992.78;;;;
2022/07/13 05:38:53;;;;;;;2.699999;2.2;;;;;;;15.83;68.5166;95992.78;;;;
2022/07/13 05:39:54;;;;;;;2.55;2.1;;;;;;;16.3;68.02148;96005.72;;;;
2022/07/13 05:40:54;;;;;;;2.55;2.1;;;;;;;16.3;68.02148;96005.72;;;;
2022/07/13 05:41:55;;;;;;;2.55;2.1;;;;;;;16.3;68.02148;96005.72;;;;
2022/07/13 05:42:56;;;;;;;2.55;2.1;;;;;;;16.3;68.02148;96005.72;;;;
2022/07/13 05:43:56;;;;;;;2.55;2.1;;;;;;;16.3;68.02148;96005.72;;;;
2022/07/13 05:44:57;;;;;;;2.55;2.1;;;;;;;16.3;68.02148;96005.72;;;;
2022/07/13 05:45:57;;;;;;;2.55;2.1;;;;;;;16.3;68.02148;96005.72;;;;
2022/07/13 05:46:58;;;;;;;2.55;2.1;;;;;;;16.3;68.02148;96005.72;;;;
2022/07/13 05:47:59;;;;;;;2.55;2.1;;;;;;;16.3;68.02148;96005.72;;;;
2022/07/13 05:48:59;;;;;;;2.55;2.1;;;;;;;16.3;68.02148;96005.72;;;;
2022/07/13 05:50:00;;;;;;;2.75;2;;;;;;;16.78;67.69043;96005.58;;;;